createdAt,value
2022-08-04T00:01:28.917Z,8.50
2022-08-04T00:04:56.635Z,6.55
2022-08-04T00:08:29.414Z,10.13
2022-08-04T00:11:53.898Z,8.35
2022-08-04T00:15:18.476Z,9.02
2022-08-04T00:18:42.726Z,6.13
2022-08-04T00:22:09.777Z,5.88
2022-08-04T00:25:32.758Z,6.93
2022-08-04T00:28:55.194Z,7.68
2022-08-04T00:32:33.803Z,5.80
2022-08-04T00:35:58.398Z,9.73
2022-08-04T00:39:22.481Z,6.88
2022-08-04T00:42:58.500Z,9.18
2022-08-04T00:46:35.122Z,8.95
2022-08-04T00:50:06.857Z,8.38
2022-08-04T00:53:36.810Z,9.88
2022-08-04T00:57:34.204Z,8.93
2022-08-04T01:01:02.078Z,6.18
2022-08-04T01:04:36.758Z,6.75
2022-08-04T01:08:28.363Z,6.18
2022-08-04T01:12:04.806Z,6.53
2022-08-04T01:15:59.972Z,6.15
2022-08-04T01:19:43.199Z,7.13
2022-08-04T01:23:46.515Z,7.00
2022-08-04T01:27:12.776Z,11.27
2022-08-04T01:30:40.530Z,5.95
2022-08-04T01:34:06.793Z,7.78
2022-08-04T01:37:42.658Z,8.82
2022-08-04T01:41:06.368Z,6.18
2022-08-04T01:44:28.872Z,6.53
2022-08-04T01:47:55.867Z,6.25
2022-08-04T01:51:20.369Z,6.22
2022-08-04T01:54:43.706Z,6.85
2022-08-04T01:58:06.757Z,6.97
2022-08-04T02:01:28.621Z,11.05
2022-08-04T02:04:52.392Z,7.78
2022-08-04T02:08:22.481Z,10.50
2022-08-04T02:11:53.403Z,8.95
2022-08-04T02:15:25.010Z,6.32
2022-08-04T02:18:57.100Z,5.97
2022-08-04T02:22:23.402Z,6.13
2022-08-04T02:25:49.946Z,5.38
2022-08-04T02:29:18.156Z,5.80
2022-08-04T02:32:41.675Z,5.78
2022-08-04T02:36:05.431Z,6.22
2022-08-04T02:39:48.285Z,6.57
2022-08-04T02:43:12.035Z,5.75
2022-08-04T02:46:35.406Z,6.78
2022-08-04T02:49:58.606Z,6.32
2022-08-04T02:53:23.821Z,6.07
2022-08-04T02:56:48.040Z,7.38
2022-08-04T03:00:15.428Z,8.20
2022-08-04T03:03:49.550Z,6.10
2022-08-04T03:07:37.330Z,9.55
2022-08-04T03:11:40.646Z,7.15
2022-08-04T03:15:41.959Z,7.20
2022-08-04T03:19:33.294Z,8.05
2022-08-04T03:23:30.982Z,8.32
2022-08-04T03:27:13.250Z,8.20
2022-08-04T03:30:49.946Z,7.82
2022-08-04T03:34:27.571Z,7.57
2022-08-04T03:38:28.054Z,7.18
2022-08-04T03:42:16.237Z,7.18
2022-08-04T03:46:22.099Z,6.50
2022-08-04T03:50:19.430Z,7.43
2022-08-04T03:53:59.881Z,7.07
2022-08-04T03:57:50.047Z,8.43
2022-08-04T04:02:01.463Z,9.18
2022-08-04T04:05:59.964Z,7.20
2022-08-04T04:10:06.246Z,8.80
2022-08-04T04:13:52.066Z,9.48
2022-08-04T04:17:39.595Z,8.73
2022-08-04T04:21:28.126Z,8.25
2022-08-04T04:25:04.299Z,7.47
2022-08-04T04:28:43.666Z,8.00
2022-08-04T04:32:23.691Z,7.10
2022-08-04T04:35:59.205Z,8.82
2022-08-04T04:39:30.202Z,8.60
2022-08-04T04:43:50.860Z,7.13
2022-08-04T04:47:19.525Z,7.93
2022-08-04T04:51:09.872Z,8.77
2022-08-04T04:54:36.121Z,11.68
2022-08-04T04:58:02.243Z,8.77
2022-08-04T05:01:43.374Z,7.78
2022-08-04T05:05:18.385Z,9.98
2022-08-04T05:08:54.950Z,8.27
2022-08-04T05:14:32.521Z,9.82
2022-08-04T05:16:20.235Z,12.00
2022-08-04T05:19:55.148Z,9.05
2022-08-04T05:23:20.468Z,9.63
2022-08-04T05:26:46.856Z,8.43
2022-08-04T05:30:10.350Z,10.43
2022-08-04T05:33:40.818Z,13.30
2022-08-04T05:37:09.397Z,17.48
2022-08-04T05:40:31.463Z,13.65
2022-08-04T05:43:53.203Z,10.50
2022-08-04T05:47:16.599Z,14.48
2022-08-04T05:50:40.549Z,12.60
2022-08-04T05:54:04.612Z,13.27
2022-08-04T05:57:27.307Z,11.80
2022-08-04T06:00:53.301Z,10.38
2022-08-04T06:04:15.954Z,11.60
2022-08-04T06:08:12.501Z,10.25
2022-08-04T06:11:24.160Z,13.65
2022-08-04T06:14:48.762Z,8.63
2022-08-04T06:18:35.585Z,9.02
2022-08-04T06:21:58.294Z,12.32
2022-08-04T06:25:28.054Z,10.07
2022-08-04T06:28:52.795Z,8.50
2022-08-04T06:32:33.686Z,11.38
2022-08-04T06:36:00.604Z,11.48
2022-08-04T06:39:25.967Z,8.80
2022-08-04T06:42:51.103Z,9.32
2022-08-04T06:46:14.992Z,11.80
2022-08-04T06:49:44.217Z,9.68
2022-08-04T06:53:24.821Z,10.20
2022-08-04T06:56:51.676Z,12.02
2022-08-04T07:00:20.620Z,10.77
2022-08-04T07:03:44.181Z,9.50
2022-08-04T07:07:07.741Z,11.00
2022-08-04T07:10:32.780Z,10.63
2022-08-04T07:13:57.287Z,13.07
2022-08-04T07:17:23.730Z,12.32
2022-08-04T07:20:56.520Z,11.95
2022-08-04T07:24:21.772Z,9.77
2022-08-04T07:27:48.421Z,10.88
2022-08-04T07:31:33.563Z,9.13
2022-08-04T07:35:00.939Z,11.73
2022-08-04T07:38:27.562Z,10.02
2022-08-04T07:41:52.199Z,9.68
2022-08-04T07:45:14.400Z,11.30
2022-08-04T07:48:36.628Z,10.40
2022-08-04T07:52:00.888Z,10.88
2022-08-04T07:55:23.435Z,9.15
2022-08-04T07:58:45.949Z,8.68
2022-08-04T08:02:10.815Z,9.80
2022-08-04T08:05:34.872Z,9.38
2022-08-04T08:09:20.498Z,10.18
2022-08-04T08:12:51.464Z,11.10
2022-08-04T08:16:14.542Z,16.58
2022-08-04T08:19:37.195Z,8.90
2022-08-04T08:22:59.927Z,10.85
2022-08-04T08:26:23.345Z,13.13
2022-08-04T08:29:46.260Z,11.07
2022-08-04T08:33:10.775Z,12.45
2022-08-04T08:36:39.539Z,7.90
2022-08-04T08:40:40.816Z,9.82
2022-08-04T08:44:36.437Z,8.23
2022-08-04T08:48:30.088Z,7.75
2022-08-04T08:52:05.407Z,7.07
2022-08-04T08:55:41.158Z,8.90
2022-08-04T09:03:08.801Z,10.52
2022-08-04T09:06:55.307Z,11.00
2022-08-04T09:10:21.742Z,8.48
2022-08-04T09:13:49.422Z,9.60
2022-08-04T09:17:20.008Z,6.03
2022-08-04T09:20:49.907Z,7.55
2022-08-04T09:24:36.322Z,9.15
2022-08-04T09:28:09.590Z,6.20
2022-08-04T09:31:51.689Z,8.07
2022-08-04T09:35:27.422Z,12.20
2022-08-04T09:38:59.861Z,3.80
2022-08-04T09:42:30.446Z,3.80
2022-08-04T09:46:02.142Z,7.07
2022-08-04T09:49:31.014Z,5.32
2022-08-04T09:53:00.594Z,4.53
2022-08-04T09:56:29.994Z,7.85
2022-08-04T10:00:01.875Z,5.15
2022-08-04T10:03:36.840Z,3.80
2022-08-04T10:07:40.049Z,5.05
2022-08-04T10:11:07.598Z,5.28
2022-08-04T10:14:42.950Z,7.25
2022-08-04T10:18:16.971Z,3.63
2022-08-04T10:21:59.319Z,3.53
2022-08-04T10:26:03.582Z,4.15
2022-08-04T10:29:23.429Z,4.13
2022-08-04T10:32:51.725Z,5.00
2022-08-04T10:36:19.833Z,5.22
2022-08-04T10:40:08.218Z,3.28
2022-08-04T10:43:43.979Z,15.85
2022-08-04T10:47:15.266Z,4.47
2022-08-04T10:50:43.794Z,8.25
2022-08-04T10:54:09.959Z,4.85
2022-08-04T10:57:37.167Z,3.28
2022-08-04T11:01:04.153Z,6.63
2022-08-04T11:04:33.116Z,3.70
2022-08-04T11:08:01.555Z,9.65
2022-08-04T11:11:31.197Z,4.05
2022-08-04T11:15:20.157Z,4.57
2022-08-04T11:18:49.339Z,4.00
2022-08-04T11:22:16.495Z,3.50
2022-08-04T11:25:52.027Z,5.03
2022-08-04T11:29:21.774Z,4.28
2022-08-04T11:32:49.050Z,3.22
2022-08-04T11:36:21.260Z,4.43
2022-08-04T11:39:47.012Z,4.20
2022-08-04T11:43:17.563Z,5.50
2022-08-04T11:47:04.603Z,9.88
2022-08-04T11:50:33.751Z,7.53
2022-08-04T11:53:56.870Z,5.45
2022-08-04T11:57:19.842Z,3.35
2022-08-04T12:01:00.254Z,4.03
2022-08-04T12:04:29.763Z,4.22
2022-08-04T12:08:01.683Z,4.70
2022-08-04T12:11:32.214Z,3.38
2022-08-04T12:15:00.842Z,3.15
2022-08-04T12:18:29.173Z,5.25
2022-08-04T12:22:00.012Z,4.90
2022-08-04T12:25:29.351Z,6.28
2022-08-04T12:29:12.033Z,9.70
2022-08-04T12:32:39.519Z,5.63
2022-08-04T12:36:21.292Z,5.10
2022-08-04T12:40:27.528Z,4.40
2022-08-04T12:43:38.646Z,5.63
2022-08-04T12:47:26.495Z,5.15
2022-08-04T12:50:49.251Z,5.72
2022-08-04T12:54:13.343Z,6.55
2022-08-04T12:57:37.039Z,4.30
2022-08-04T13:01:03.683Z,4.80
2022-08-04T13:04:51.180Z,4.20
2022-08-04T13:08:15.445Z,6.72
2022-08-04T13:11:44.081Z,3.33
2022-08-04T13:15:18.075Z,3.40
2022-08-04T13:18:47.024Z,3.80
2022-08-04T13:22:09.127Z,5.85
2022-08-04T13:26:44.347Z,3.33
2022-08-04T13:29:16.580Z,4.50
2022-08-04T13:32:39.866Z,3.00
2022-08-04T13:36:02.743Z,3.10
2022-08-04T13:39:26.065Z,7.20
2022-08-04T13:42:48.966Z,8.27
2022-08-04T13:46:27.226Z,7.75
2022-08-04T13:50:13.592Z,5.40
2022-08-04T13:53:37.203Z,4.97
2022-08-04T13:57:03.369Z,5.20
2022-08-04T14:00:30.048Z,4.43
2022-08-04T14:04:00.710Z,5.43
2022-08-04T14:07:23.619Z,9.48
2022-08-04T14:10:55.164Z,4.95
2022-08-04T14:14:20.412Z,6.18
2022-08-04T14:17:42.679Z,5.80
2022-08-04T14:21:08.702Z,3.40
2022-08-04T14:24:30.961Z,3.03
2022-08-04T14:28:01.171Z,6.40
2022-08-04T14:31:38.249Z,3.72
2022-08-04T14:35:17.789Z,4.63
2022-08-04T14:38:46.881Z,3.90
2022-08-04T14:42:09.181Z,5.03
2022-08-04T14:45:34.329Z,4.13
2022-08-04T14:49:04.298Z,4.13
2022-08-04T14:52:31.996Z,4.68
2022-08-04T14:55:57.403Z,6.32
2022-08-04T14:59:19.934Z,5.45
2022-08-04T15:02:44.242Z,7.43
2022-08-04T15:06:12.531Z,4.05
2022-08-04T15:09:38.670Z,4.20
2022-08-04T15:13:05.002Z,3.20
2022-08-04T15:16:29.434Z,4.35
2022-08-04T15:19:55.825Z,4.75
2022-08-04T15:23:18.127Z,9.63
2022-08-04T15:26:43.709Z,3.33
2022-08-04T15:30:08.718Z,3.00
2022-08-04T15:33:33.875Z,5.13
2022-08-04T15:37:01.687Z,3.28
2022-08-04T15:40:33.303Z,4.00
2022-08-04T15:44:13.869Z,5.05
2022-08-04T15:47:41.425Z,3.22
2022-08-04T15:51:14.715Z,4.75
2022-08-04T15:54:37.793Z,7.32
2022-08-04T15:58:01.041Z,5.60
2022-08-04T16:01:23.815Z,4.20
2022-08-04T16:04:46.978Z,3.63
2022-08-04T16:08:18.654Z,3.25
2022-08-04T16:11:43.172Z,4.38
2022-08-04T16:15:38.306Z,6.32
2022-08-04T16:19:06.226Z,4.30
2022-08-04T16:22:37.926Z,3.83
2022-08-04T16:25:59.562Z,3.80
2022-08-04T16:29:37.833Z,3.15
2022-08-04T16:32:59.874Z,5.03
2022-08-04T16:37:02.927Z,4.05
2022-08-04T16:40:37.441Z,3.00
2022-08-04T16:44:51.629Z,2.65
2022-08-04T16:48:13.532Z,2.67
2022-08-04T16:51:35.779Z,4.22
2022-08-04T16:55:00.313Z,4.07
2022-08-04T16:58:33.279Z,3.00
2022-08-04T17:01:58.700Z,3.72
2022-08-04T17:05:38.660Z,3.20
2022-08-04T17:09:06.331Z,3.63
2022-08-04T17:12:30.181Z,3.72
2022-08-04T17:15:54.622Z,2.53
2022-08-04T17:19:23.918Z,5.18
2022-08-04T17:22:48.389Z,4.85
2022-08-04T17:26:12.594Z,4.00
2022-08-04T17:29:42.998Z,4.07
2022-08-04T17:33:08.099Z,3.78
2022-08-04T17:36:38.875Z,8.85
2022-08-04T17:40:10.069Z,4.70
2022-08-04T17:44:05.004Z,2.70
2022-08-04T17:47:20.865Z,4.03
2022-08-04T17:50:44.483Z,11.50
2022-08-04T17:54:06.851Z,11.35
2022-08-04T17:57:29.001Z,5.78
2022-08-04T18:05:06.314Z,8.00
2022-08-04T18:08:35.150Z,5.85
2022-08-04T18:12:04.119Z,5.43
2022-08-04T18:15:26.383Z,5.22
2022-08-04T18:19:10.157Z,12.93
2022-08-04T18:22:32.052Z,5.95
2022-08-04T18:25:55.034Z,5.10
2022-08-04T18:29:31.975Z,3.90
2022-08-04T18:33:10.490Z,4.50
2022-08-04T18:36:38.484Z,5.13
2022-08-04T18:40:11.219Z,6.70
2022-08-04T18:43:43.761Z,3.53
2022-08-04T18:47:19.780Z,7.35
2022-08-04T18:51:10.456Z,5.68
2022-08-04T18:54:41.973Z,5.32
2022-08-04T18:58:07.394Z,6.18
2022-08-04T19:02:17.422Z,4.38
2022-08-04T19:05:19.300Z,3.92
2022-08-04T19:08:42.409Z,5.32
2022-08-04T19:12:07.178Z,8.30
2022-08-04T19:15:34.450Z,6.18
2022-08-04T19:18:58.411Z,8.35
2022-08-04T19:22:35.456Z,8.77
2022-08-04T19:26:03.910Z,10.82
2022-08-04T19:29:37.249Z,9.55
2022-08-04T19:32:59.875Z,5.85
2022-08-04T19:36:27.905Z,6.13
2022-08-04T19:39:51.333Z,6.00
2022-08-04T19:43:15.293Z,10.82
2022-08-04T19:46:37.411Z,6.63
2022-08-04T19:50:02.857Z,8.85
2022-08-04T19:53:37.885Z,8.48
2022-08-04T19:57:05.082Z,4.18
2022-08-04T20:00:33.946Z,5.88
2022-08-04T20:04:08.359Z,16.85
2022-08-04T20:07:32.015Z,19.83
2022-08-04T20:10:58.123Z,8.82
2022-08-04T20:14:31.543Z,11.02
2022-08-04T20:18:08.392Z,10.75
2022-08-04T20:21:55.672Z,13.65
2022-08-04T20:25:36.856Z,7.00
2022-08-04T20:29:01.233Z,5.93
2022-08-04T20:32:25.124Z,11.18
2022-08-04T20:36:05.747Z,10.35
2022-08-04T20:39:28.839Z,11.82
2022-08-04T20:42:52.367Z,6.75
2022-08-04T20:46:17.693Z,11.00
2022-08-04T20:49:40.459Z,7.28
2022-08-04T20:53:16.645Z,7.13
2022-08-04T20:56:39.248Z,6.18
2022-08-04T21:00:14.042Z,5.75
2022-08-04T21:03:59.901Z,5.47
2022-08-04T21:07:24.591Z,6.03
2022-08-04T21:10:47.474Z,5.22
2022-08-04T21:14:09.597Z,5.28
2022-08-04T21:17:59.163Z,6.82
2022-08-04T21:21:16.650Z,9.30
2022-08-04T21:24:38.826Z,8.15
2022-08-04T21:28:04.226Z,6.95
2022-08-04T21:31:26.361Z,4.90
2022-08-04T21:34:54.005Z,4.50
2022-08-04T21:38:18.249Z,4.57
2022-08-04T21:42:10.013Z,7.47
2022-08-04T21:45:22.451Z,7.55
2022-08-04T21:48:44.457Z,4.90
2022-08-04T21:52:10.618Z,8.18
2022-08-04T21:56:04.661Z,5.03
2022-08-04T21:59:15.466Z,7.28
2022-08-04T22:02:46.583Z,6.40
2022-08-04T22:06:17.528Z,6.78
2022-08-04T22:09:41.651Z,5.32
2022-08-04T22:13:22.989Z,6.68
2022-08-04T22:16:45.410Z,5.78
2022-08-04T22:20:08.343Z,6.78
2022-08-04T22:23:49.891Z,5.72
2022-08-04T22:27:12.663Z,6.20
2022-08-04T22:30:38.094Z,9.52
2022-08-04T22:34:02.654Z,8.02
2022-08-04T22:37:36.016Z,6.75
2022-08-04T22:41:06.940Z,10.73
2022-08-04T22:44:29.729Z,8.48
2022-08-04T22:47:56.437Z,5.30
2022-08-04T22:51:21.358Z,6.95
2022-08-04T22:54:44.482Z,6.68
2022-08-04T22:58:09.515Z,11.13
2022-08-04T23:01:57.894Z,6.47
2022-08-04T23:05:15.747Z,7.22
2022-08-04T23:08:37.833Z,5.63
2022-08-04T23:12:23.806Z,5.30
2022-08-04T23:15:41.750Z,6.68
2022-08-04T23:19:09.450Z,8.38
2022-08-04T23:22:41.091Z,6.18
2022-08-04T23:26:11.430Z,8.52
2022-08-04T23:29:53.080Z,5.70
2022-08-04T23:33:15.424Z,5.45
2022-08-04T23:36:37.403Z,5.85
2022-08-04T23:40:15.534Z,8.20
2022-08-04T23:43:55.383Z,8.35
2022-08-04T23:48:18.255Z,6.53
2022-08-04T23:51:04.402Z,5.50
2022-08-04T23:54:35.501Z,7.00
2022-08-04T23:58:06.216Z,6.03
